Grawn, Michigan
Current Conditions -  °F | °C
As of 10:53 PM on Wednesday 28 Jan 2015 (Local Time) from KTVC Reporting Station
Overcast Overcast  
Wind Chill: 20°   Ceiling: 9500
Heat Index: 29°   Visibility: 10mi
Dew Point: 11°   Wind: 9mph
Humidity: 47%   Direction: 140°SE
Pressure: 29.96"   Gusts: NA
Location:  44.66°N, 85.69°W
Report Text: KTVC 290353Z 14008KT 120V180 10SM OVC095 M02/M12 A2996 RMK AO2 SLP153 T10171117
Loading
Personal Weather Stations






























Interactive Weather Map New forecast layout! Learn more

10-Day Weather Forecast

Advertisements
Track Severe Weather on mobile